createdAt,value
2022-09-13T00:01:13.458Z,20.64
2022-09-13T00:03:40.773Z,20.70
2022-09-13T00:06:19.709Z,20.75
2022-09-13T00:08:48.416Z,20.81
2022-09-13T00:11:26.906Z,20.70
2022-09-13T00:13:56.328Z,20.80
2022-09-13T00:16:29.559Z,20.55
2022-09-13T00:18:57.135Z,20.53
2022-09-13T00:21:25.190Z,20.66
2022-09-13T00:23:55.236Z,20.68
2022-09-13T00:26:28.845Z,20.63
2022-09-13T00:28:58.855Z,20.58
2022-09-13T00:31:28.972Z,20.69
2022-09-13T00:34:00.660Z,20.43
2022-09-13T00:36:28.865Z,20.47
2022-09-13T00:38:59.456Z,20.27
2022-09-13T00:41:27.151Z,20.36
2022-09-13T00:44:02.493Z,20.33
2022-09-13T00:46:43.220Z,20.24
2022-09-13T00:49:36.466Z,20.38
2022-09-13T00:52:13.684Z,20.32
2022-09-13T00:54:52.506Z,20.35
2022-09-13T00:57:22.090Z,20.21
2022-09-13T01:00:14.864Z,20.13
2022-09-13T01:02:54.844Z,20.10
2022-09-13T01:05:30.857Z,20.05
2022-09-13T01:07:59.763Z,20.08
2022-09-13T01:10:27.757Z,19.94
2022-09-13T01:13:14.704Z,20.03
2022-09-13T01:15:42.656Z,19.89
2022-09-13T01:18:11.712Z,19.99
2022-09-13T01:21:47.792Z,19.79
2022-09-13T01:25:18.353Z,19.68
2022-09-13T01:28:29.604Z,19.74
2022-09-13T01:31:47.929Z,19.77
2022-09-13T01:35:00.580Z,19.84
2022-09-13T01:38:18.748Z,19.81
2022-09-13T01:42:13.852Z,19.80
2022-09-13T01:45:26.994Z,19.87
2022-09-13T01:49:15.092Z,19.77
2022-09-13T01:52:11.110Z,19.72
2022-09-13T01:55:37.095Z,19.68
2022-09-13T01:58:29.700Z,19.68
2022-09-13T02:01:24.297Z,19.55
2022-09-13T02:04:23.560Z,19.66
2022-09-13T02:07:31.196Z,19.60
2022-09-13T02:10:16.747Z,19.46
2022-09-13T02:12:47.740Z,19.44
2022-09-13T02:15:32.112Z,19.60
2022-09-13T02:18:30.559Z,19.17
2022-09-13T02:21:13.411Z,19.46
2022-09-13T02:24:03.574Z,19.12
2022-09-13T02:26:34.408Z,19.39
2022-09-13T02:29:13.265Z,19.35
2022-09-13T02:32:10.533Z,19.21
2022-09-13T02:35:00.588Z,19.20
2022-09-13T02:37:34.064Z,19.35
2022-09-13T02:40:14.316Z,19.20
2022-09-13T02:42:59.149Z,19.15
2022-09-13T02:46:30.275Z,19.14
2022-09-13T02:49:34.152Z,19.09
2022-09-13T02:52:24.935Z,18.89
2022-09-13T02:55:18.917Z,19.02
2022-09-13T02:58:14.717Z,18.98
2022-09-13T03:00:42.223Z,19.06
2022-09-13T03:03:15.540Z,18.97
2022-09-13T03:05:44.727Z,19.07
2022-09-13T03:08:14.793Z,19.16
2022-09-13T03:11:12.243Z,18.96
2022-09-13T03:14:54.968Z,18.95
2022-09-13T03:17:58.657Z,19.00
2022-09-13T03:21:35.901Z,19.04
2022-09-13T03:25:02.160Z,18.88
2022-09-13T03:29:00.131Z,19.03
2022-09-13T03:31:58.131Z,18.90
2022-09-13T03:34:48.771Z,18.86
2022-09-13T03:37:43.521Z,18.97
2022-09-13T03:40:25.072Z,18.94
2022-09-13T03:43:38.224Z,18.81
2022-09-13T03:46:17.516Z,18.93
2022-09-13T03:48:45.196Z,18.82
2022-09-13T03:51:12.541Z,18.77
2022-09-13T03:53:52.127Z,18.60
2022-09-13T03:56:21.160Z,18.53
2022-09-13T03:58:49.719Z,18.54
2022-09-13T04:01:26.579Z,18.54
2022-09-13T04:03:56.822Z,18.43
2022-09-13T04:06:24.507Z,18.55
2022-09-13T04:08:51.772Z,18.40
2022-09-13T04:11:21.303Z,18.56
2022-09-13T04:13:48.670Z,18.59
2022-09-13T04:16:16.079Z,18.54
2022-09-13T04:18:43.367Z,18.56
2022-09-13T04:21:10.733Z,18.60
2022-09-13T04:23:38.304Z,18.50
2022-09-13T04:26:06.559Z,18.43
2022-09-13T04:28:33.938Z,18.55
2022-09-13T04:31:02.411Z,18.54
2022-09-13T04:33:30.114Z,18.46
2022-09-13T04:36:00.863Z,18.46
2022-09-13T04:38:30.932Z,18.54
2022-09-13T04:40:58.284Z,18.29
2022-09-13T04:43:27.348Z,18.37
2022-09-13T04:45:54.701Z,18.52
2022-09-13T04:48:21.974Z,18.34
2022-09-13T04:50:49.236Z,18.20
2022-09-13T04:53:16.626Z,18.22
2022-09-13T04:55:43.883Z,18.39
2022-09-13T04:58:11.931Z,18.32
2022-09-13T05:00:39.208Z,18.09
2022-09-13T05:03:06.477Z,18.13
2022-09-13T05:05:33.783Z,18.42
2022-09-13T05:08:01.269Z,18.17
2022-09-13T05:10:28.580Z,18.14
2022-09-13T05:12:55.880Z,18.23
2022-09-13T05:15:23.144Z,18.18
2022-09-13T05:17:50.387Z,18.30
2022-09-13T05:20:18.542Z,18.29
2022-09-13T05:22:45.832Z,18.23
2022-09-13T05:25:13.948Z,18.20
2022-09-13T05:27:41.234Z,18.16
2022-09-13T05:30:09.279Z,18.26
2022-09-13T05:32:36.583Z,18.02
2022-09-13T05:35:04.365Z,18.33
2022-09-13T05:37:31.721Z,18.35
2022-09-13T05:40:14.329Z,18.20
2022-09-13T05:42:41.793Z,18.45
2022-09-13T05:45:11.053Z,18.55
2022-09-13T05:47:43.457Z,18.49
2022-09-13T05:50:22.247Z,18.54
2022-09-13T05:52:56.391Z,18.59
2022-09-13T05:55:24.383Z,18.43
2022-09-13T05:57:51.685Z,18.64
2022-09-13T06:00:19.056Z,18.67
2022-09-13T06:02:46.530Z,18.66
2022-09-13T06:05:14.585Z,18.88
2022-09-13T06:07:43.048Z,18.47
2022-09-13T06:10:12.024Z,18.61
2022-09-13T06:12:40.157Z,18.60
2022-09-13T06:15:10.064Z,18.71
2022-09-13T06:17:37.480Z,18.64
2022-09-13T06:20:06.065Z,18.66
2022-09-13T06:22:35.255Z,18.81
2022-09-13T06:25:03.181Z,18.76
2022-09-13T06:27:31.376Z,18.79
2022-09-13T06:30:01.427Z,18.79
2022-09-13T06:32:28.680Z,18.82
2022-09-13T06:34:55.936Z,18.94
2022-09-13T06:37:23.223Z,18.96
2022-09-13T06:39:50.508Z,18.97
2022-09-13T06:42:17.936Z,18.86
2022-09-13T06:44:50.338Z,19.13
2022-09-13T06:47:18.740Z,19.23
2022-09-13T06:49:46.062Z,19.23
2022-09-13T06:52:13.319Z,19.47
2022-09-13T06:54:40.853Z,19.53
2022-09-13T06:57:08.140Z,19.38
2022-09-13T06:59:35.492Z,19.49
2022-09-13T07:02:03.022Z,19.69
2022-09-13T07:04:33.073Z,19.86
2022-09-13T07:07:02.298Z,19.78
2022-09-13T07:09:29.611Z,19.83
2022-09-13T07:11:58.200Z,19.74
2022-09-13T07:14:29.835Z,19.72
2022-09-13T07:16:57.401Z,19.92
2022-09-13T07:19:28.088Z,20.03
2022-09-13T07:22:00.839Z,20.20
2022-09-13T07:24:28.595Z,20.14
2022-09-13T07:26:56.119Z,20.23
2022-09-13T07:29:25.313Z,20.20
2022-09-13T07:31:55.359Z,20.22
2022-09-13T07:34:26.502Z,20.36
2022-09-13T07:36:54.612Z,20.37
2022-09-13T07:39:23.163Z,20.55
2022-09-13T07:41:51.920Z,20.51
2022-09-13T07:44:19.433Z,20.63
2022-09-13T07:46:46.763Z,20.63
2022-09-13T07:49:19.466Z,20.75
2022-09-13T07:51:46.875Z,21.03
2022-09-13T07:54:18.232Z,20.95
2022-09-13T07:56:46.196Z,21.03
2022-09-13T07:59:18.155Z,21.09
2022-09-13T08:01:50.800Z,21.11
2022-09-13T08:04:24.488Z,21.28
2022-09-13T08:06:51.789Z,21.33
2022-09-13T08:09:19.460Z,21.41
2022-09-13T08:11:53.005Z,21.51
2022-09-13T08:14:24.170Z,21.65
2022-09-13T08:16:55.678Z,21.80
2022-09-13T08:19:23.136Z,21.80
2022-09-13T08:21:50.431Z,21.84
2022-09-13T08:24:21.610Z,21.82
2022-09-13T08:26:49.553Z,22.04
2022-09-13T08:29:17.416Z,21.96
2022-09-13T08:31:45.982Z,22.05
2022-09-13T08:34:16.290Z,22.15
2022-09-13T08:36:44.425Z,22.10
2022-09-13T08:39:13.665Z,22.31
2022-09-13T08:41:42.271Z,22.35
2022-09-13T08:44:46.608Z,22.44
2022-09-13T08:48:16.318Z,22.57
2022-09-13T08:50:45.157Z,22.63
2022-09-13T08:53:30.550Z,22.70
2022-09-13T08:56:13.017Z,22.74
2022-09-13T08:59:40.247Z,22.92
2022-09-13T09:03:05.509Z,22.96
2022-09-13T09:05:47.979Z,23.06
2022-09-13T09:08:39.361Z,23.12
2022-09-13T09:11:39.437Z,23.28
2022-09-13T09:14:32.053Z,23.50
2022-09-13T09:17:20.230Z,23.59
2022-09-13T09:20:20.448Z,23.74
2022-09-13T09:22:49.362Z,23.64
2022-09-13T09:25:16.737Z,23.77
2022-09-13T09:27:44.165Z,23.92
2022-09-13T09:30:15.137Z,24.01
2022-09-13T09:33:20.510Z,24.21
2022-09-13T09:36:37.334Z,24.36
2022-09-13T09:39:11.190Z,24.36
2022-09-13T09:41:38.750Z,24.50
2022-09-13T09:44:31.416Z,24.63
2022-09-13T09:47:14.040Z,24.79
2022-09-13T09:50:25.801Z,24.66
2022-09-13T09:53:26.965Z,24.85
2022-09-13T09:56:12.703Z,24.84
2022-09-13T09:58:43.853Z,24.95
2022-09-13T10:01:34.982Z,25.15
2022-09-13T10:04:11.180Z,25.27
2022-09-13T10:06:42.364Z,25.67
2022-09-13T10:09:23.033Z,25.85
2022-09-13T10:11:59.835Z,25.97
2022-09-13T10:14:46.762Z,26.08
2022-09-13T10:17:29.406Z,26.23
2022-09-13T10:20:14.321Z,26.47
2022-09-13T10:22:42.963Z,26.64
2022-09-13T10:25:37.177Z,26.63
2022-09-13T10:28:09.490Z,26.73
2022-09-13T10:31:02.394Z,26.80
2022-09-13T10:33:42.556Z,26.80
2022-09-13T10:36:52.695Z,27.02
2022-09-13T10:39:23.997Z,27.41
2022-09-13T10:42:08.487Z,27.50
2022-09-13T10:44:53.333Z,27.67
2022-09-13T10:47:51.497Z,27.66
2022-09-13T10:50:31.108Z,27.88
2022-09-13T10:53:00.770Z,27.85
2022-09-13T10:55:39.085Z,27.97
2022-09-13T10:58:06.132Z,28.13
2022-09-13T11:01:40.526Z,28.16
2022-09-13T11:04:57.632Z,28.39
2022-09-13T11:07:48.533Z,28.63
2022-09-13T11:10:43.743Z,28.60
2022-09-13T11:13:54.331Z,28.03
2022-09-13T11:17:10.557Z,27.24
2022-09-13T11:20:28.746Z,27.42
2022-09-13T11:24:14.584Z,27.75
2022-09-13T11:27:29.208Z,27.46
2022-09-13T11:30:30.130Z,27.77
2022-09-13T11:33:34.096Z,27.38
2022-09-13T11:36:37.957Z,27.78
2022-09-13T11:39:49.395Z,27.08
2022-09-13T11:43:37.765Z,27.55
2022-09-13T11:47:06.386Z,27.44
2022-09-13T11:50:23.564Z,27.45
2022-09-13T11:54:05.712Z,27.67
2022-09-13T11:56:46.984Z,27.77
2022-09-13T11:59:59.217Z,27.66
2022-09-13T12:03:12.977Z,27.25
2022-09-13T12:05:53.748Z,27.22
2022-09-13T12:08:36.695Z,26.95
2022-09-13T12:11:32.763Z,27.10
2022-09-13T12:14:17.536Z,26.42
2022-09-13T12:16:55.520Z,26.94
2022-09-13T12:19:41.785Z,27.20
2022-09-13T12:22:10.925Z,27.40
2022-09-13T12:24:53.511Z,26.92
2022-09-13T12:27:39.667Z,26.83
2022-09-13T12:30:19.108Z,26.43
2022-09-13T12:32:49.160Z,26.51
2022-09-13T12:35:49.480Z,26.93
2022-09-13T12:39:23.966Z,26.71
2022-09-13T12:42:38.205Z,27.19
2022-09-13T12:45:31.564Z,26.85
2022-09-13T12:49:13.156Z,27.38
2022-09-13T12:52:47.611Z,27.10
2022-09-13T12:56:21.362Z,27.05
2022-09-13T12:59:39.044Z,26.97
2022-09-13T13:02:45.416Z,26.90
2022-09-13T13:05:38.744Z,26.60
2022-09-13T13:08:30.364Z,26.87
2022-09-13T13:11:15.076Z,26.55
2022-09-13T13:14:00.651Z,27.38
2022-09-13T13:16:40.913Z,27.05
2022-09-13T13:19:33.877Z,27.09
2022-09-13T13:22:44.731Z,26.70
2022-09-13T13:25:38.983Z,27.02
2022-09-13T13:28:43.308Z,26.70
2022-09-13T13:31:29.958Z,26.71
2022-09-13T13:34:06.465Z,26.66
2022-09-13T13:36:42.448Z,27.15
2022-09-13T13:39:42.426Z,27.55
2022-09-13T13:42:31.632Z,27.28
2022-09-13T13:45:25.864Z,26.87
2022-09-13T13:48:15.559Z,27.54
2022-09-13T13:51:15.288Z,28.14
2022-09-13T13:53:55.756Z,28.34
2022-09-13T13:56:49.145Z,27.98
2022-09-13T13:59:33.086Z,27.81
2022-09-13T14:02:01.836Z,27.84
2022-09-13T14:05:28.100Z,27.11
2022-09-13T14:08:39.768Z,27.42
2022-09-13T14:11:46.620Z,27.19
2022-09-13T14:14:33.560Z,27.16
2022-09-13T14:18:08.712Z,27.28
2022-09-13T14:20:36.214Z,27.49
2022-09-13T14:23:19.209Z,27.27
2022-09-13T14:25:53.931Z,27.23
2022-09-13T14:28:23.064Z,26.76
2022-09-13T14:30:58.474Z,27.06
2022-09-13T14:33:34.998Z,27.40
2022-09-13T14:36:21.431Z,27.38
2022-09-13T14:38:59.311Z,27.63
2022-09-13T14:41:39.075Z,27.66
2022-09-13T14:44:29.065Z,27.30
2022-09-13T14:47:32.610Z,27.63
2022-09-13T14:50:15.047Z,27.21
2022-09-13T14:52:57.250Z,27.52
2022-09-13T14:56:12.870Z,27.53
2022-09-13T14:58:51.532Z,27.14
2022-09-13T15:01:34.191Z,27.44
2022-09-13T15:04:07.327Z,27.21
2022-09-13T15:06:40.287Z,27.44
2022-09-13T15:09:10.517Z,27.61
2022-09-13T15:12:01.101Z,27.64
2022-09-13T15:14:38.145Z,27.22
2022-09-13T15:17:14.128Z,27.15
2022-09-13T15:20:12.251Z,27.28
2022-09-13T15:22:43.437Z,27.76
2022-09-13T15:25:29.558Z,27.26
2022-09-13T15:27:58.309Z,27.31
2022-09-13T15:30:38.965Z,27.32
2022-09-13T15:33:12.149Z,27.25
2022-09-13T15:35:47.004Z,26.99
2022-09-13T15:38:31.750Z,27.06
2022-09-13T15:41:20.349Z,27.09
2022-09-13T15:43:51.081Z,27.29
2022-09-13T15:46:19.404Z,27.41
2022-09-13T15:49:05.829Z,27.13
2022-09-13T15:51:38.642Z,27.26
2022-09-13T15:54:18.505Z,27.13
2022-09-13T15:56:53.259Z,27.14
2022-09-13T15:59:22.464Z,27.11
2022-09-13T16:01:53.345Z,27.08
2022-09-13T16:04:21.122Z,26.84
2022-09-13T16:06:48.632Z,26.84
2022-09-13T16:09:25.474Z,27.28
2022-09-13T16:11:53.280Z,27.00
2022-09-13T16:14:21.049Z,27.13
2022-09-13T16:16:49.262Z,27.11
2022-09-13T16:19:23.385Z,27.02
2022-09-13T16:21:51.048Z,27.29
2022-09-13T16:24:18.301Z,27.09
2022-09-13T16:26:45.840Z,27.04
2022-09-13T16:29:16.555Z,27.21
2022-09-13T16:31:43.992Z,27.52
2022-09-13T16:34:11.430Z,27.47
2022-09-13T16:36:38.748Z,27.52
2022-09-13T16:39:06.122Z,27.56
2022-09-13T16:41:33.427Z,27.28
2022-09-13T16:44:01.963Z,27.18
2022-09-13T16:46:30.849Z,27.01
2022-09-13T16:48:58.588Z,27.22
2022-09-13T16:51:26.549Z,26.86
2022-09-13T16:53:54.495Z,26.83
2022-09-13T16:56:26.645Z,27.03
2022-09-13T16:58:55.031Z,26.76
2022-09-13T17:01:27.529Z,26.75
2022-09-13T17:03:56.959Z,26.69
2022-09-13T17:06:27.024Z,27.11
2022-09-13T17:09:01.496Z,27.15
2022-09-13T17:11:34.055Z,26.69
2022-09-13T17:14:06.524Z,26.80
2022-09-13T17:16:49.455Z,26.59
2022-09-13T17:19:27.744Z,26.60
2022-09-13T17:21:57.556Z,26.73
2022-09-13T17:24:28.161Z,26.77
2022-09-13T17:26:56.964Z,26.55
2022-09-13T17:29:25.698Z,26.76
2022-09-13T17:31:53.184Z,26.71
2022-09-13T17:34:21.288Z,26.43
2022-09-13T17:36:51.205Z,26.53
2022-09-13T17:39:19.711Z,26.47
2022-09-13T17:41:48.688Z,26.24
2022-09-13T17:44:16.363Z,26.26
2022-09-13T17:46:44.432Z,26.42
2022-09-13T17:49:11.949Z,26.16
2022-09-13T17:51:39.500Z,26.15
2022-09-13T17:54:10.353Z,26.22
2022-09-13T17:56:44.300Z,26.31
2022-09-13T17:59:21.568Z,26.09
2022-09-13T18:01:53.936Z,26.17
2022-09-13T18:04:23.950Z,26.01
2022-09-13T18:06:53.641Z,26.10
2022-09-13T18:09:21.868Z,26.19
2022-09-13T18:11:50.096Z,26.20
2022-09-13T18:14:19.636Z,26.29
2022-09-13T18:16:51.864Z,26.40
2022-09-13T18:19:33.843Z,26.37
2022-09-13T18:22:09.448Z,26.22
2022-09-13T18:24:37.007Z,26.11
2022-09-13T18:27:04.719Z,26.27
2022-09-13T18:29:32.938Z,26.43
2022-09-13T18:32:00.482Z,26.25
2022-09-13T18:34:28.137Z,26.27
2022-09-13T18:36:55.739Z,26.24
2022-09-13T18:39:23.669Z,25.87
2022-09-13T18:41:51.208Z,26.09
2022-09-13T18:44:19.245Z,26.18
2022-09-13T18:46:47.453Z,26.26
2022-09-13T18:49:15.270Z,26.16
2022-09-13T18:51:45.168Z,26.27
2022-09-13T18:54:17.633Z,26.29
2022-09-13T18:56:47.298Z,26.17
2022-09-13T18:59:14.894Z,26.30
2022-09-13T19:01:44.731Z,26.32
2022-09-13T19:04:17.996Z,26.28
2022-09-13T19:06:53.409Z,26.33
2022-09-13T19:09:22.986Z,26.14
2022-09-13T19:11:55.225Z,26.09
2022-09-13T19:14:27.613Z,26.10
2022-09-13T19:17:04.243Z,26.09
2022-09-13T19:19:31.932Z,26.18
2022-09-13T19:21:59.209Z,26.00
2022-09-13T19:24:26.797Z,26.07
2022-09-13T19:26:54.316Z,26.08
2022-09-13T19:29:23.614Z,26.10
2022-09-13T19:31:55.715Z,26.08
2022-09-13T19:34:23.895Z,26.15
2022-09-13T19:36:57.321Z,26.12
2022-09-13T19:39:29.173Z,26.07
2022-09-13T19:42:02.338Z,25.93
2022-09-13T19:44:29.960Z,26.04
2022-09-13T19:47:36.392Z,26.13
2022-09-13T19:49:45.379Z,26.06
2022-09-13T19:52:12.625Z,26.15
2022-09-13T19:54:39.915Z,26.04
2022-09-13T19:57:09.866Z,25.87
2022-09-13T19:59:37.197Z,25.91
2022-09-13T20:02:04.956Z,25.87
2022-09-13T20:04:32.792Z,25.95
2022-09-13T20:07:02.769Z,25.97
2022-09-13T20:09:31.619Z,25.95
2022-09-13T20:12:00.466Z,25.93
2022-09-13T20:14:28.528Z,25.88
2022-09-13T20:16:56.236Z,25.87
2022-09-13T20:19:40.670Z,25.79
2022-09-13T20:22:09.748Z,25.89
2022-09-13T20:24:37.413Z,25.81
2022-09-13T20:27:05.116Z,25.79
2022-09-13T20:29:32.511Z,25.79
2022-09-13T20:32:00.427Z,25.82
2022-09-13T20:34:28.023Z,25.78
2022-09-13T20:36:55.399Z,25.86
2022-09-13T20:39:22.671Z,25.81
2022-09-13T20:41:50.078Z,25.75
2022-09-13T20:44:17.900Z,25.72
2022-09-13T20:46:45.466Z,25.52
2022-09-13T20:49:12.855Z,25.61
2022-09-13T20:51:40.242Z,25.57
2022-09-13T20:54:08.300Z,25.53
2022-09-13T20:56:36.146Z,25.52
2022-09-13T20:59:05.031Z,25.56
2022-09-13T21:01:33.469Z,25.58
2022-09-13T21:04:01.243Z,25.53
2022-09-13T21:06:59.492Z,25.37
2022-09-13T21:09:27.281Z,25.41
2022-09-13T21:11:54.694Z,25.37
2022-09-13T21:14:21.979Z,25.14
2022-09-13T21:16:49.253Z,25.36
2022-09-13T21:19:16.560Z,25.21
2022-09-13T21:21:43.887Z,25.07
2022-09-13T21:24:12.967Z,24.92
2022-09-13T21:26:42.391Z,25.11
2022-09-13T21:29:11.643Z,25.15
2022-09-13T21:31:40.233Z,25.04
2022-09-13T21:34:16.244Z,25.17
2022-09-13T21:36:46.109Z,24.96
2022-09-13T21:39:15.136Z,24.97
2022-09-13T21:41:43.517Z,25.05
2022-09-13T21:44:11.240Z,25.07
2022-09-13T21:46:40.490Z,24.91
2022-09-13T21:49:13.341Z,24.94
2022-09-13T21:51:48.324Z,24.89
2022-09-13T21:54:19.410Z,24.97
2022-09-13T21:56:54.245Z,25.00
2022-09-13T21:59:23.532Z,24.88
2022-09-13T22:01:53.097Z,24.83
2022-09-13T22:04:27.414Z,24.89
2022-09-13T22:06:55.645Z,24.74
2022-09-13T22:09:26.933Z,24.72
2022-09-13T22:11:56.588Z,24.80
2022-09-13T22:14:24.071Z,24.78
2022-09-13T22:16:53.081Z,24.88
2022-09-13T22:19:27.105Z,24.81
2022-09-13T22:21:59.611Z,24.67
2022-09-13T22:24:32.402Z,24.56
2022-09-13T22:26:59.756Z,24.65
2022-09-13T22:29:27.610Z,24.71
2022-09-13T22:31:55.177Z,24.63
2022-09-13T22:34:25.686Z,24.71
2022-09-13T22:36:55.980Z,24.62
2022-09-13T22:39:23.499Z,24.60
2022-09-13T22:41:51.299Z,24.77
2022-09-13T22:44:18.715Z,24.76
2022-09-13T22:46:47.286Z,24.58
2022-09-13T22:49:19.103Z,24.50
2022-09-13T22:51:48.579Z,24.47
2022-09-13T22:54:18.614Z,24.49
2022-09-13T22:56:46.938Z,24.45
2022-09-13T22:59:21.377Z,24.38
2022-09-13T23:01:49.421Z,24.55
2022-09-13T23:04:17.914Z,24.30
2022-09-13T23:06:46.209Z,24.34
2022-09-13T23:09:18.491Z,24.43
2022-09-13T23:11:46.879Z,24.46
2022-09-13T23:14:21.238Z,24.28
2022-09-13T23:16:52.498Z,24.45
2022-09-13T23:19:22.848Z,24.46
2022-09-13T23:21:52.228Z,24.28
2022-09-13T23:24:19.948Z,24.25
2022-09-13T23:26:48.024Z,24.46
2022-09-13T23:29:19.896Z,24.35
2022-09-13T23:31:48.770Z,24.26
2022-09-13T23:34:17.730Z,24.27
2022-09-13T23:36:47.269Z,24.16
2022-09-13T23:39:19.583Z,24.22
2022-09-13T23:41:50.363Z,24.31
2022-09-13T23:44:18.012Z,24.36
2022-09-13T23:46:45.834Z,24.22
2022-09-13T23:49:13.911Z,24.12
2022-09-13T23:51:41.443Z,24.18
2022-09-13T23:54:09.196Z,24.02
2022-09-13T23:56:36.529Z,24.16
2022-09-13T23:59:06.229Z,24.11
